Time;durP1;ratioP1;P1;durP2;ratioP2;P2;SDS_P1;SDS_P2;PMS_P1;PMS_P2;Temp;Humidity;BMP_temperature;BMP_pressure;BME280_temperature;BME280_humidity;BME280_pressure;Samples;Min_cycle;Max_cycle;Signal;HPM_P1;HPM_P2
2021/07/13 00:02:23;;;;;;;5.55;5.05;;;20.10;73.60;;;;;;4931636;29;20034;-74
2021/07/13 00:04:50;;;;;;;7.93;5.45;;;20.10;73.70;;;;;;4932056;29;20035;-75
2021/07/13 00:07:16;;;;;;;5.85;5.35;;;20.10;73.70;;;;;;4931835;29;20387;-74
2021/07/13 00:09:44;;;;;;;5.50;5.00;;;20.10;73.80;;;;;;4931559;29;20399;-73
2021/07/13 00:12:10;;;;;;;6.72;5.88;;;20.10;73.90;;;;;;4931648;29;20165;-75
2021/07/13 00:14:37;;;;;;;6.30;5.65;;;20.00;73.70;;;;;;4931969;29;20485;-74
2021/07/13 00:17:06;;;;;;;6.18;5.57;;;20.00;73.90;;;;;;4946850;29;20381;-73
2021/07/13 00:19:34;;;;;;;5.30;4.80;;;20.00;73.90;;;;;;4931822;29;20138;-74
2021/07/13 00:22:01;;;;;;;6.18;5.63;;;20.00;73.90;;;;;;4932185;29;20147;-73
2021/07/13 00:24:27;;;;;;;5.60;4.97;;;20.00;74.00;;;;;;4931844;29;20024;-74
2021/07/13 00:26:53;;;;;;;6.15;5.20;;;19.90;73.80;;;;;;4932292;29;20123;-74
2021/07/13 00:29:19;;;;;;;6.55;6.00;;;19.90;73.90;;;;;;4930849;29;20697;-73
2021/07/13 00:31:45;;;;;;;6.13;5.53;;;19.90;74.00;;;;;;4931421;29;20034;-73
2021/07/13 00:34:11;;;;;;;6.13;5.53;;;19.90;74.00;;;;;;4931327;29;20031;-75
2021/07/13 00:36:37;;;;;;;6.43;5.80;;;19.80;73.90;;;;;;4932163;29;20118;-73
2021/07/13 00:39:03;;;;;;;6.55;5.75;;;19.80;73.90;;;;;;4931331;29;20110;-73
2021/07/13 00:41:34;;;;;;;7.18;6.43;;;19.80;74.00;;;;;;4932294;29;20468;-74
2021/07/13 00:44:00;;;;;;;6.60;5.93;;;19.80;74.10;;;;;;4930739;29;20031;-74
2021/07/13 00:46:27;;;;;;;6.70;6.00;;;19.70;73.80;;;;;;4931404;29;20593;-74
2021/07/13 00:48:53;;;;;;;6.47;5.88;;;19.70;73.90;;;;;;4930282;29;20495;-74
2021/07/13 00:51:19;;;;;;;9.32;6.13;;;19.70;74.00;;;;;;4931585;29;20139;-73
2021/07/13 00:53:48;;;;;;;6.05;5.47;;;19.60;73.80;;;;;;4930058;29;20082;-73
2021/07/13 00:56:14;;;;;;;6.97;6.38;;;19.60;73.90;;;;;;4929665;29;20429;-73
2021/07/13 00:58:40;;;;;;;6.65;6.05;;;19.60;74.00;;;;;;4931031;29;20087;-73
2021/07/13 01:01:07;;;;;;;6.80;6.20;;;19.50;73.80;;;;;;4930939;29;20058;-73
2021/07/13 01:03:34;;;;;;;7.68;6.85;;;19.50;73.90;;;;;;4931366;29;20059;-74
2021/07/13 01:06:01;;;;;;;6.88;6.20;;;19.50;74.00;;;;;;4929503;29;20095;-74
2021/07/13 01:08:48;;;;;;;6.93;6.28;;;19.50;74.00;;;;;;4930815;29;20377;-73
2021/07/13 01:11:28;;;;;;;7.38;6.72;;;19.40;74.10;;;;;;4930547;29;20043;-74
2021/07/13 01:14:12;;;;;;;6.55;5.95;;;19.40;74.10;;;;;;4931099;29;20376;-74
2021/07/13 01:16:45;;;;;;;6.38;5.82;;;19.30;73.90;;;;;;4931258;29;20035;-73
2021/07/13 01:19:42;;;;;;;6.80;6.05;;;19.30;74.00;;;;;;4930334;29;20494;-74
2021/07/13 01:22:22;;;;;;;7.63;6.93;;;19.20;73.90;;;;;;4930672;29;20035;-73
2021/07/13 01:25:01;;;;;;;6.93;6.22;;;19.20;74.00;;;;;;4930194;29;20028;-73
2021/07/13 01:27:43;;;;;;;7.28;6.63;;;19.20;74.00;;;;;;4929193;29;20398;-73
2021/07/13 01:30:13;;;;;;;7.63;6.82;;;19.10;74.00;;;;;;4928620;29;20052;-74
2021/07/13 01:32:42;;;;;;;7.63;6.93;;;19.10;73.90;;;;;;4893687;29;20148;-73
2021/07/13 01:35:14;;;;;;;7.38;6.68;;;19.10;74.00;;;;;;4892695;29;20040;-73
2021/07/13 01:37:44;;;;;;;8.35;6.90;;;19.10;74.10;;;;;;4893830;29;20029;-74
2021/07/13 01:40:11;;;;;;;8.10;7.30;;;19.00;74.00;;;;;;4929499;29;20436;-73
2021/07/13 01:42:39;;;;;;;7.57;6.88;;;19.00;74.10;;;;;;4931628;29;20059;-74
2021/07/13 01:45:07;;;;;;;8.00;7.32;;;19.00;74.10;;;;;;4930792;29;20035;-74
2021/07/13 01:47:37;;;;;;;7.50;6.90;;;19.00;74.20;;;;;;4915374;29;20056;-73
2021/07/13 01:50:05;;;;;;;8.23;7.43;;;18.90;74.20;;;;;;4914707;29;20040;-73
2021/07/13 01:52:34;;;;;;;8.13;7.35;;;18.90;74.20;;;;;;4915816;29;20086;-74
2021/07/13 01:55:01;;;;;;;7.63;6.90;;;18.90;74.30;;;;;;4915615;29;20366;-74
2021/07/13 01:57:28;;;;;;;7.95;7.25;;;18.90;74.40;;;;;;4914957;29;20032;-74
2021/07/13 01:59:55;;;;;;;10.45;7.80;;;18.90;74.50;;;;;;4916328;29;20070;-74
2021/07/13 02:02:23;;;;;;;8.45;7.68;;;18.80;74.40;;;;;;4915489;29;20028;-74
2021/07/13 02:04:50;;;;;;;8.40;7.60;;;18.80;74.40;;;;;;4915150;29;20036;-73
2021/07/13 02:07:17;;;;;;;7.88;7.18;;;18.80;74.40;;;;;;4915536;29;20024;-74
2021/07/13 02:09:44;;;;;;;8.02;7.32;;;18.80;74.40;;;;;;4914550;29;20314;-73
2021/07/13 02:12:11;;;;;;;7.43;6.75;;;18.80;74.50;;;;;;4915162;29;20039;-75
2021/07/13 02:14:37;;;;;;;8.10;7.40;;;18.80;74.50;;;;;;4914727;29;20028;-75
2021/07/13 02:17:04;;;;;;;8.00;6.68;;;18.80;74.50;;;;;;4915667;29;20104;-77
2021/07/13 02:19:30;;;;;;;7.97;7.28;;;18.70;74.40;;;;;;4915879;29;20040;-75
2021/07/13 02:21:57;;;;;;;7.60;7.00;;;18.70;74.40;;;;;;4915638;29;20028;-74
2021/07/13 02:24:23;;;;;;;7.13;6.43;;;18.70;74.50;;;;;;4914551;29;20471;-75
2021/07/13 02:27:19;;;;;;;7.70;7.10;;;18.60;74.30;;;;;;4930272;29;20039;-76
2021/07/13 02:29:49;;;;;;;7.35;6.72;;;18.60;74.40;;;;;;4910624;29;20044;-75
2021/07/13 02:32:27;;;;;;;7.65;6.95;;;18.60;74.90;;;;;;4914975;29;20146;-74
2021/07/13 02:34:56;;;;;;;8.55;7.68;;;18.50;74.30;;;;;;4914536;29;20119;-74
2021/07/13 02:37:25;;;;;;;8.23;7.50;;;18.50;74.30;;;;;;4915102;29;20032;-74
2021/07/13 02:39:51;;;;;;;7.30;6.57;;;18.50;74.40;;;;;;4914025;29;20047;-74
2021/07/13 02:42:18;;;;;;;7.80;7.03;;;18.40;74.20;;;;;;4913729;29;20031;-73
2021/07/13 02:44:47;;;;;;;7.75;7.07;;;18.50;74.40;;;;;;4915131;29;20056;-75
2021/07/13 02:47:14;;;;;;;7.85;7.07;;;18.40;74.30;;;;;;4915068;29;20028;-74
2021/07/13 02:49:46;;;;;;;7.15;6.53;;;18.40;74.30;;;;;;4915020;29;20044;-73
2021/07/13 02:52:20;;;;;;;9.33;6.70;;;18.40;74.40;;;;;;4914461;29;20052;-74
2021/07/13 02:54:49;;;;;;;6.90;6.35;;;18.30;74.30;;;;;;4915160;29;20035;-73
2021/07/13 02:57:16;;;;;;;7.65;6.95;;;18.30;74.30;;;;;;4914814;29;20092;-74
2021/07/13 02:59:45;;;;;;;7.80;7.10;;;18.30;74.40;;;;;;4915162;29;20461;-74
2021/07/13 03:02:13;;;;;;;8.15;6.63;;;18.20;74.20;;;;;;4914876;29;20142;-74
2021/07/13 03:04:40;;;;;;;7.20;6.60;;;18.20;74.30;;;;;;4914523;29;20271;-75
2021/07/13 03:07:08;;;;;;;7.57;6.90;;;18.20;74.40;;;;;;4915064;29;20032;-76
2021/07/13 03:09:34;;;;;;;7.15;6.55;;;18.10;74.40;;;;;;4914524;29;20043;-73
2021/07/13 03:12:00;;;;;;;8.43;7.15;;;18.10;74.40;;;;;;4914462;29;20472;-73
2021/07/13 03:14:29;;;;;;;7.25;6.68;;;18.10;74.40;;;;;;4915129;29;20127;-73
2021/07/13 03:16:55;;;;;;;7.50;6.82;;;18.10;74.50;;;;;;4914985;29;20028;-74
2021/07/13 03:19:21;;;;;;;8.00;7.20;;;18.10;74.60;;;;;;4914886;29;20545;-74
2021/07/13 03:21:54;;;;;;;7.90;7.13;;;18.10;74.60;;;;;;4914933;29;20032;-74
2021/07/13 03:24:22;;;;;;;8.68;7.70;;;18.00;74.60;;;;;;4914822;29;20036;-74
2021/07/13 03:26:49;;;;;;;7.35;6.70;;;18.00;74.50;;;;;;4914711;29;20088;-75
2021/07/13 03:29:15;;;;;;;6.88;6.28;;;18.00;74.50;;;;;;4914563;29;20118;-73
2021/07/13 03:31:43;;;;;;;7.22;6.32;;;18.00;74.50;;;;;;4913845;29;20036;-73
2021/07/13 03:34:09;;;;;;;7.88;7.18;;;18.00;74.60;;;;;;4915804;29;20139;-73
2021/07/13 03:36:36;;;;;;;9.73;7.18;;;17.90;74.50;;;;;;4914258;29;20437;-73
2021/07/13 03:39:08;;;;;;;6.90;6.20;;;17.90;74.50;;;;;;4914548;29;20035;-74
2021/07/13 03:41:35;;;;;;;7.10;6.53;;;17.90;74.70;;;;;;4914766;29;20051;-73
2021/07/13 03:44:03;;;;;;;6.93;6.30;;;17.90;74.70;;;;;;4915163;29;20391;-75
2021/07/13 03:46:37;;;;;;;7.18;6.43;;;17.90;74.70;;;;;;4919837;29;20068;-74
2021/07/13 03:49:08;;;;;;;7.38;6.72;;;17.90;74.90;;;;;;4923714;29;20520;-74
2021/07/13 03:51:36;;;;;;;6.25;5.70;;;17.90;74.90;;;;;;4925421;29;20052;-73
2021/07/13 03:54:03;;;;;;;7.25;6.55;;;17.90;74.80;;;;;;4926029;29;20036;-74
2021/07/13 03:56:30;;;;;;;8.07;6.78;;;17.90;74.80;;;;;;4927016;29;20566;-74
2021/07/13 03:58:56;;;;;;;5.85;5.35;;;17.80;74.70;;;;;;4925806;29;20393;-74
2021/07/13 04:01:22;;;;;;;6.20;5.70;;;17.90;74.80;;;;;;4926315;29;20039;-74
2021/07/13 04:03:48;;;;;;;6.07;5.68;;;17.80;74.70;;;;;;4926734;29;20024;-74
2021/07/13 04:06:14;;;;;;;7.70;6.75;;;17.80;74.70;;;;;;4925480;29;20123;-74
2021/07/13 04:08:40;;;;;;;6.43;5.93;;;17.80;74.70;;;;;;4925497;29;20048;-74
2021/07/13 04:11:06;;;;;;;6.00;5.50;;;17.80;74.80;;;;;;4926215;29;20092;-74
2021/07/13 04:13:32;;;;;;;7.00;6.38;;;17.80;74.80;;;;;;4926037;29;20040;-74
2021/07/13 04:15:58;;;;;;;7.05;6.45;;;17.80;74.80;;;;;;4926401;29;20044;-74
2021/07/13 04:18:24;;;;;;;6.47;5.97;;;17.80;74.80;;;;;;4925852;29;20028;-73
2021/07/13 04:20:50;;;;;;;7.18;6.57;;;17.80;74.80;;;;;;4926654;29;20036;-73
2021/07/13 04:23:17;;;;;;;5.97;5.47;;;17.80;74.80;;;;;;4929131;29;20028;-73
2021/07/13 04:25:45;;;;;;;9.57;6.15;;;17.70;74.70;;;;;;4929720;29;20047;-74
2021/07/13 04:28:11;;;;;;;6.63;6.00;;;17.70;74.70;;;;;;4928914;29;20036;-74
2021/07/13 04:30:37;;;;;;;6.85;6.25;;;17.70;74.70;;;;;;4929521;29;20035;-73
2021/07/13 04:33:03;;;;;;;6.38;5.43;;;17.70;74.80;;;;;;4928685;29;20032;-74
2021/07/13 04:35:29;;;;;;;6.97;6.38;;;17.70;74.80;;;;;;4928619;29;20043;-73
2021/07/13 04:37:55;;;;;;;5.80;5.30;;;17.70;74.80;;;;;;4926352;29;20436;-74
2021/07/13 04:40:22;;;;;;;7.63;6.93;;;17.70;74.90;;;;;;4930411;29;20294;-74
2021/07/13 04:42:48;;;;;;;7.35;6.60;;;17.70;74.90;;;;;;4940276;29;20032;-73
2021/07/13 04:45:14;;;;;;;6.53;5.93;;;17.70;75.00;;;;;;4918527;29;20039;-74
2021/07/13 04:47:40;;;;;;;6.60;5.93;;;17.70;75.00;;;;;;4920997;28;20142;-74
2021/07/13 04:50:08;;;;;;;9.48;6.38;;;17.60;74.80;;;;;;4916461;29;20193;-73
2021/07/13 04:52:35;;;;;;;7.13;6.53;;;17.70;75.00;;;;;;4915007;29;20428;-75
2021/07/13 04:55:01;;;;;;;7.15;6.50;;;17.70;75.00;;;;;;4914532;29;20046;-73
2021/07/13 04:57:27;;;;;;;6.88;6.28;;;17.60;74.80;;;;;;4921878;29;20039;-73
2021/07/13 04:59:54;;;;;;;6.90;6.32;;;17.60;74.80;;;;;;4934989;29;20484;-74
2021/07/13 05:02:21;;;;;;;7.13;6.38;;;17.70;75.00;;;;;;4942167;28;20036;-74
2021/07/13 05:04:47;;;;;;;12.18;6.65;;;17.70;75.10;;;;;;4922652;29;20079;-74
2021/07/13 05:07:13;;;;;;;6.75;6.15;;;17.60;74.90;;;;;;4924346;29;20104;-74
2021/07/13 05:09:39;;;;;;;8.82;5.80;;;17.70;75.10;;;;;;4943680;29;20071;-73
2021/07/13 05:12:06;;;;;;;5.90;5.40;;;17.70;75.10;;;;;;4944320;29;20556;-75
2021/07/13 05:14:32;;;;;;;6.25;5.72;;;17.70;75.10;;;;;;4935901;29;20062;-73
2021/07/13 05:16:58;;;;;;;6.32;5.72;;;17.70;75.10;;;;;;4939115;29;20028;-73
2021/07/13 05:19:24;;;;;;;7.00;6.03;;;17.80;75.30;;;;;;4935228;29;20039;-73
2021/07/13 05:21:56;;;;;;;6.43;5.82;;;17.80;75.20;;;;;;4933732;29;20031;-73
2021/07/13 05:24:23;;;;;;;6.65;6.10;;;17.80;75.20;;;;;;4948477;29;20399;-73
2021/07/13 05:26:49;;;;;;;6.63;5.90;;;17.80;75.10;;;;;;4935696;29;20506;-73
2021/07/13 05:29:15;;;;;;;7.70;5.93;;;17.80;75.10;;;;;;4931659;29;20054;-73
2021/07/13 05:31:43;;;;;;;6.30;5.80;;;17.80;75.00;;;;;;4935883;29;20038;-73
2021/07/13 05:34:09;;;;;;;6.60;6.00;;;17.90;75.20;;;;;;4932600;29;20080;-73
2021/07/13 05:36:35;;;;;;;6.85;6.00;;;17.90;75.20;;;;;;4933642;29;20479;-73
2021/07/13 05:39:05;;;;;;;6.18;5.55;;;17.90;75.20;;;;;;4940000;28;20019;-73
2021/07/13 05:41:31;;;;;;;5.80;5.30;;;17.90;75.20;;;;;;4929675;29;20036;-75
2021/07/13 05:43:58;;;;;;;6.65;6.05;;;17.90;75.20;;;;;;4927565;29;20042;-73
2021/07/13 05:46:24;;;;;;;6.90;6.20;;;17.90;75.20;;;;;;4930076;29;20036;-73
2021/07/13 05:48:51;;;;;;;6.18;5.68;;;17.90;75.20;;;;;;4932134;29;20028;-73
2021/07/13 05:51:18;;;;;;;6.43;5.80;;;17.90;75.20;;;;;;4933078;29;20488;-73
2021/07/13 05:53:44;;;;;;;6.35;5.85;;;18.00;75.30;;;;;;4917392;29;20111;-73
2021/07/13 05:56:10;;;;;;;6.57;5.97;;;18.00;75.30;;;;;;4917961;29;20071;-74
2021/07/13 05:58:37;;;;;;;6.82;6.13;;;18.00;75.30;;;;;;4922076;29;20387;-75
2021/07/13 06:01:05;;;;;;;6.28;5.78;;;18.00;75.20;;;;;;4932637;29;20562;-74
2021/07/13 06:03:31;;;;;;;6.50;6.00;;;18.00;75.20;;;;;;4945241;29;20114;-74
2021/07/13 06:05:57;;;;;;;5.95;5.45;;;18.10;75.40;;;;;;4930455;29;20031;-74
2021/07/13 06:08:23;;;;;;;6.15;5.65;;;18.10;75.30;;;;;;4928654;29;20035;-74
2021/07/13 06:10:49;;;;;;;8.30;6.47;;;18.20;75.40;;;;;;4930614;29;20039;-74
2021/07/13 06:13:15;;;;;;;6.45;5.95;;;18.20;75.40;;;;;;4930224;29;20091;-74
2021/07/13 06:15:41;;;;;;;6.75;6.15;;;18.30;75.50;;;;;;4929644;29;20118;-74
2021/07/13 06:18:08;;;;;;;6.88;6.18;;;18.40;75.60;;;;;;4929915;29;20047;-74
2021/07/13 06:20:35;;;;;;;6.82;6.07;;;18.40;75.50;;;;;;4928527;29;20035;-73
2021/07/13 06:23:01;;;;;;;7.43;6.72;;;18.50;75.60;;;;;;4928711;29;20032;-73
2021/07/13 06:25:28;;;;;;;6.82;6.22;;;18.60;75.60;;;;;;4930538;29;20035;-73
2021/07/13 06:27:54;;;;;;;10.52;9.52;;;18.70;75.70;;;;;;4930595;29;20054;-73
2021/07/13 06:30:20;;;;;;;11.90;10.77;;;18.70;75.70;;;;;;4932378;29;20036;-73
2021/07/13 06:32:47;;;;;;;12.07;10.82;;;18.80;75.90;;;;;;4931121;29;20038;-73
2021/07/13 06:35:13;;;;;;;10.52;9.52;;;18.90;76.10;;;;;;4930489;29;20028;-74
2021/07/13 06:37:40;;;;;;;11.00;9.88;;;19.00;76.30;;;;;;4943986;29;20484;-74
2021/07/13 06:40:07;;;;;;;11.75;9.68;;;19.20;76.50;;;;;;4920283;29;20048;-74
2021/07/13 06:42:33;;;;;;;17.42;10.10;;;19.30;76.40;;;;;;4910197;29;20484;-73
2021/07/13 06:44:59;;;;;;;22.95;10.70;;;19.40;76.20;;;;;;4909169;29;20031;-75
2021/07/13 06:47:25;;;;;;;11.05;10.07;;;19.50;76.20;;;;;;4912190;29;20103;-74
2021/07/13 06:49:51;;;;;;;10.90;9.70;;;19.50;76.00;;;;;;4928039;29;20039;-73
2021/07/13 06:52:17;;;;;;;11.23;10.15;;;19.50;76.00;;;;;;4928305;29;20058;-72
2021/07/13 06:54:43;;;;;;;10.30;9.35;;;19.50;76.00;;;;;;4929213;29;20039;-73
2021/07/13 06:57:09;;;;;;;10.18;9.32;;;19.50;76.00;;;;;;4928769;29;20249;-73
2021/07/13 06:59:35;;;;;;;10.00;9.05;;;19.60;76.20;;;;;;4914313;29;20036;-73
2021/07/13 07:02:02;;;;;;;11.88;9.27;;;19.70;76.50;;;;;;4903190;29;20400;-74
2021/07/13 07:04:28;;;;;;;10.38;9.40;;;19.70;76.20;;;;;;4927999;29;20069;-74
2021/07/13 07:06:54;;;;;;;10.57;9.68;;;19.80;76.30;;;;;;4929306;29;20036;-74
2021/07/13 07:09:20;;;;;;;13.18;10.35;;;19.80;76.10;;;;;;4916177;29;20048;-74
2021/07/13 07:11:46;;;;;;;12.75;9.93;;;19.80;76.00;;;;;;4912415;29;20039;-73
2021/07/13 07:14:12;;;;;;;10.95;9.90;;;19.80;75.80;;;;;;4913827;29;20383;-73
2021/07/13 07:16:38;;;;;;;10.43;9.27;;;19.70;75.60;;;;;;4910326;29;20101;-73
2021/07/13 07:19:04;;;;;;;11.70;9.73;;;19.70;75.60;;;;;;4924034;29;20515;-73
2021/07/13 07:21:30;;;;;;;9.80;8.93;;;19.70;76.00;;;;;;4917008;29;20588;-72
2021/07/13 07:23:56;;;;;;;10.00;9.10;;;19.80;75.50;;;;;;4906876;29;20508;-73
2021/07/13 07:26:22;;;;;;;10.18;9.27;;;19.80;75.40;;;;;;4910171;29;20131;-72
2021/07/13 07:28:48;;;;;;;8.90;8.10;;;19.80;75.20;;;;;;4921570;29;20095;-72
2021/07/13 07:31:19;;;;;;;10.27;9.18;;;19.90;75.10;;;;;;4929101;29;20063;-72
2021/07/13 07:33:45;;;;;;;9.85;8.93;;;19.90;74.90;;;;;;4928664;29;20036;-72
2021/07/13 07:36:11;;;;;;;9.13;8.35;;;20.00;74.90;;;;;;4927595;29;20042;-72
2021/07/13 07:38:37;;;;;;;8.85;8.13;;;20.00;74.80;;;;;;4928457;29;20032;-73
2021/07/13 07:41:04;;;;;;;10.07;8.68;;;20.00;74.70;;;;;;4902770;29;20259;-73
2021/07/13 07:43:30;;;;;;;8.48;7.60;;;20.10;74.90;;;;;;4921580;29;20094;-73
2021/07/13 07:45:56;;;;;;;8.80;8.00;;;20.10;74.90;;;;;;4928920;29;20519;-81
2021/07/13 07:48:22;;;;;;;9.13;8.07;;;20.20;75.00;;;;;;4928524;29;20039;-80
2021/07/13 07:50:48;;;;;;;8.45;7.65;;;20.20;74.80;;;;;;4929028;29;20058;-77
2021/07/13 07:53:13;;;;;;;9.48;7.93;;;20.20;74.60;;;;;;4928989;29;20129;-78
2021/07/13 07:55:39;;;;;;;9.50;7.85;;;20.30;74.60;;;;;;4930821;29;20039;-78
2021/07/13 07:58:06;;;;;;;11.80;8.52;;;20.40;74.60;;;;;;4932183;29;20043;-78
2021/07/13 08:00:32;;;;;;;8.05;7.28;;;20.50;74.50;;;;;;4932543;29;20063;-77
2021/07/13 08:02:58;;;;;;;8.93;7.55;;;20.50;74.30;;;;;;4926161;29;20051;-77
2021/07/13 08:05:29;;;;;;;8.65;7.75;;;20.60;74.20;;;;;;4911329;29;20547;-77
2021/07/13 08:07:56;;;;;;;7.90;7.18;;;20.70;74.10;;;;;;4918116;29;20028;-72
2021/07/13 08:10:22;;;;;;;8.73;8.00;;;20.80;73.90;;;;;;4930329;29;20054;-72
2021/07/13 08:12:48;;;;;;;7.05;6.45;;;20.80;73.70;;;;;;4926211;29;20032;-73
2021/07/13 08:15:14;;;;;;;7.28;6.57;;;20.90;73.60;;;;;;4908744;29;20036;-72
2021/07/13 08:17:42;;;;;;;8.38;6.90;;;21.00;73.60;;;;;;4915997;29;20087;-72
2021/07/13 08:20:10;;;;;;;7.78;6.65;;;21.00;73.60;;;;;;4923513;29;20031;-72
2021/07/13 08:22:36;;;;;;;7.63;6.40;;;21.00;73.60;;;;;;4917155;29;20123;-73
2021/07/13 08:25:04;;;;;;;8.20;6.22;;;21.00;73.70;;;;;;4930839;29;20074;-72
2021/07/13 08:27:30;;;;;;;7.55;6.65;;;21.10;73.80;;;;;;4931140;29;20130;-72
2021/07/13 08:29:57;;;;;;;7.38;6.68;;;21.20;74.00;;;;;;4931112;29;20148;-77
2021/07/13 08:32:23;;;;;;;6.32;5.72;;;21.50;74.20;;;;;;4929548;29;20677;-73
2021/07/13 08:34:49;;;;;;;8.82;7.15;;;21.80;73.90;;;;;;4911927;29;20032;-74
2021/07/13 08:37:17;;;;;;;8.63;7.75;;;22.10;73.50;;;;;;4911634;29;20030;-73
2021/07/13 08:39:43;;;;;;;8.32;6.55;;;22.40;73.20;;;;;;4903350;29;20080;-74
2021/07/13 08:42:09;;;;;;;10.02;8.40;;;22.60;72.60;;;;;;4911773;29;20036;-73
2021/07/13 08:44:35;;;;;;;8.73;7.88;;;22.70;72.30;;;;;;4913086;29;20131;-73
2021/07/13 08:47:01;;;;;;;8.05;7.35;;;22.90;72.30;;;;;;4912495;29;20032;-72
2021/07/13 08:49:28;;;;;;;11.57;7.72;;;23.10;71.80;;;;;;4928714;29;20043;-73
2021/07/13 08:51:54;;;;;;;8.20;7.38;;;23.30;71.20;;;;;;4929572;29;20051;-73
2021/07/13 08:54:21;;;;;;;8.82;7.28;;;23.30;70.90;;;;;;4929489;29;20028;-73
2021/07/13 08:56:47;;;;;;;8.32;7.30;;;23.20;70.70;;;;;;4931800;29;20035;-73
2021/07/13 08:59:13;;;;;;;7.35;6.75;;;23.00;70.50;;;;;;4931399;29;20369;-73
2021/07/13 09:01:39;;;;;;;7.05;6.38;;;22.90;70.50;;;;;;4930748;29;20059;-75
2021/07/13 09:04:07;;;;;;;7.40;6.70;;;22.80;70.50;;;;;;4930423;29;20032;-73
2021/07/13 09:06:57;;;;;;;7.85;7.25;;;22.80;70.70;;;;;;4930444;29;20031;-73
2021/07/13 09:09:37;;;;;;;8.07;7.25;;;22.70;70.60;;;;;;4932512;29;20054;-74
2021/07/13 09:12:19;;;;;;;8.45;7.68;;;22.80;70.40;;;;;;4929345;29;20122;-73
2021/07/13 09:15:07;;;;;;;8.15;7.35;;;22.80;70.10;;;;;;4931047;29;20035;-72
2021/07/13 09:17:44;;;;;;;7.78;7.07;;;22.80;69.90;;;;;;4931145;29;20059;-76
2021/07/13 09:20:10;;;;;;;7.90;7.10;;;22.90;70.00;;;;;;4929088;29;20035;-74
2021/07/13 09:22:38;;;;;;;7.53;6.85;;;23.00;70.00;;;;;;4930819;29;20118;-75
2021/07/13 09:25:29;;;;;;;7.70;7.00;;;23.10;69.90;;;;;;4931245;29;20498;-72
2021/07/13 09:28:13;;;;;;;10.48;7.95;;;23.40;69.80;;;;;;4930954;29;20082;-73
2021/07/13 09:30:48;;;;;;;8.27;7.47;;;23.60;69.30;;;;;;4930564;29;20048;-73
2021/07/13 09:33:26;;;;;;;8.70;7.20;;;23.80;69.20;;;;;;4927876;29;20126;-73
2021/07/13 09:36:05;;;;;;;7.20;6.50;;;24.10;68.90;;;;;;4911407;29;20047;-72
2021/07/13 09:38:35;;;;;;;8.18;6.65;;;24.40;68.70;;;;;;4918969;29;20042;-73
2021/07/13 09:41:09;;;;;;;7.82;7.07;;;24.60;68.50;;;;;;4928321;29;20159;-73
2021/07/13 09:43:39;;;;;;;6.00;5.50;;;24.90;68.30;;;;;;4928732;29;20803;-73
2021/07/13 09:46:34;;;;;;;6.80;6.10;;;25.10;68.10;;;;;;4930046;29;20035;-73
2021/07/13 09:49:09;;;;;;;6.50;5.85;;;25.30;67.80;;;;;;4929599;29;20132;-75
2021/07/13 09:51:36;;;;;;;7.22;6.30;;;25.40;67.80;;;;;;4929099;29;20062;-73
2021/07/13 09:54:03;;;;;;;6.15;5.63;;;25.60;67.90;;;;;;4929401;29;20032;-73
2021/07/13 09:56:40;;;;;;;6.05;5.53;;;25.80;67.90;;;;;;4930090;29;20040;-73
2021/07/13 09:59:06;;;;;;;7.22;5.63;;;25.90;67.70;;;;;;4916220;29;20035;-75
2021/07/13 10:01:33;;;;;;;5.88;5.38;;;26.00;67.70;;;;;;4911247;29;20036;-74
2021/07/13 10:04:01;;;;;;;5.82;5.32;;;26.20;67.70;;;;;;4925599;29;20075;-77
2021/07/13 10:06:32;;;;;;;6.15;5.40;;;26.20;67.60;;;;;;4928288;29;20027;-74
2021/07/13 10:09:00;;;;;;;6.10;5.50;;;26.30;67.60;;;;;;4929663;29;20535;-74
2021/07/13 10:11:29;;;;;;;6.22;5.63;;;26.40;67.50;;;;;;4929775;29;20028;-74
2021/07/13 10:13:59;;;;;;;6.32;5.10;;;26.40;67.50;;;;;;4928825;29;20137;-74
2021/07/13 10:16:26;;;;;;;5.28;4.78;;;26.50;67.50;;;;;;4944368;29;20032;-75
2021/07/13 10:18:52;;;;;;;4.95;4.55;;;26.60;67.40;;;;;;4929340;29;20077;-74
2021/07/13 10:21:19;;;;;;;5.38;4.85;;;26.60;67.40;;;;;;4928677;29;20036;-73
2021/07/13 10:23:45;;;;;;;7.70;5.63;;;26.80;66.70;;;;;;4929885;29;20028;-75
2021/07/13 10:26:12;;;;;;;5.95;5.22;;;26.80;65.90;;;;;;4928121;29;20040;-74
2021/07/13 10:28:41;;;;;;;5.68;5.22;;;26.70;65.40;;;;;;4929166;29;20504;-74
2021/07/13 10:31:10;;;;;;;5.78;5.28;;;26.70;65.20;;;;;;4929934;29;20297;-76
2021/07/13 10:33:38;;;;;;;7.55;5.35;;;26.60;64.70;;;;;;4916419;29;20031;-74
2021/07/13 10:36:33;;;;;;;5.78;5.07;;;26.60;64.50;;;;;;4907939;29;20103;-78
2021/07/13 10:39:29;;;;;;;5.30;4.80;;;26.40;64.20;;;;;;4922490;29;20048;-79
2021/07/13 10:41:57;;;;;;;5.85;5.35;;;26.50;64.40;;;;;;4918861;29;20028;-75
2021/07/13 10:44:46;;;;;;;6.55;5.95;;;26.60;64.20;;;;;;4915945;29;20087;-75
2021/07/13 10:47:26;;;;;;;7.43;6.00;;;26.80;63.80;;;;;;4910710;29;20040;-77
2021/07/13 10:50:16;;;;;;;6.45;5.63;;;26.80;63.30;;;;;;4909220;29;20415;-74
2021/07/13 10:53:03;;;;;;;5.82;4.88;;;26.80;63.20;;;;;;4910697;29;20055;-79
2021/07/13 10:55:33;;;;;;;5.63;5.18;;;26.70;63.00;;;;;;4906846;29;20028;-79
2021/07/13 11:00:49;;;;;;;5.93;5.50;;;26.60;63.10;;;;;;4913060;29;20472;-79
2021/07/13 11:03:27;;;;;;;5.40;4.90;;;26.70;62.90;;;;;;4919166;29;20106;-75
2021/07/13 11:05:58;;;;;;;5.82;5.32;;;26.80;62.60;;;;;;4928962;29;20027;-74
2021/07/13 11:08:47;;;;;;;6.78;6.18;;;26.80;62.50;;;;;;4928884;29;20115;-77
2021/07/13 11:11:22;;;;;;;5.82;5.32;;;26.80;62.30;;;;;;4928352;29;20498;-76
2021/07/13 11:13:49;;;;;;;6.75;5.45;;;26.80;62.20;;;;;;4927800;29;20638;-73
2021/07/13 11:16:21;;;;;;;5.82;5.25;;;26.70;62.30;;;;;;4929720;29;20074;-72
2021/07/13 11:18:47;;;;;;;7.60;5.70;;;26.70;62.20;;;;;;4918382;29;20048;-72
2021/07/13 11:21:24;;;;;;;5.70;5.13;;;26.60;62.30;;;;;;4908735;29;20094;-73
2021/07/13 11:23:54;;;;;;;6.10;5.60;;;26.60;62.40;;;;;;4927990;29;20031;-73
2021/07/13 11:26:23;;;;;;;7.05;5.65;;;26.70;62.70;;;;;;4928752;29;20135;-71
2021/07/13 11:28:54;;;;;;;6.72;5.95;;;26.80;62.50;;;;;;4929433;29;20070;-73
2021/07/13 11:31:23;;;;;;;5.80;5.30;;;26.90;62.30;;;;;;4931308;29;20146;-73
2021/07/13 11:34:04;;;;;;;6.07;5.38;;;26.90;61.90;;;;;;4922530;29;20060;-73
2021/07/13 11:36:33;;;;;;;7.75;6.93;;;26.90;62.10;;;;;;4906922;29;20065;-72
2021/07/13 11:39:01;;;;;;;7.82;7.05;;;26.80;62.40;;;;;;4925623;29;20083;-75
2021/07/13 11:41:29;;;;;;;7.40;6.72;;;26.70;62.40;;;;;;4927597;29;20415;-74
2021/07/13 11:43:57;;;;;;;7.93;7.10;;;26.50;62.50;;;;;;4913051;29;20056;-73
2021/07/13 11:46:26;;;;;;;7.05;6.45;;;26.30;62.60;;;;;;4913067;29;20028;-72
2021/07/13 11:48:57;;;;;;;9.85;7.00;;;26.20;62.90;;;;;;4924423;29;20071;-74
2021/07/13 11:51:51;;;;;;;8.50;6.72;;;26.00;63.10;;;;;;4932572;29;20481;-73
2021/07/13 11:54:20;;;;;;;7.40;6.70;;;25.90;63.50;;;;;;4931098;29;20031;-72
2021/07/13 11:56:48;;;;;;;7.35;6.65;;;25.90;63.80;;;;;;4932387;29;20031;-73
2021/07/13 11:59:16;;;;;;;7.05;6.45;;;25.90;63.60;;;;;;4916557;29;20087;-73
2021/07/13 12:01:44;;;;;;;7.78;6.97;;;26.10;63.70;;;;;;4913663;29;20107;-74
2021/07/13 12:04:12;;;;;;;10.02;6.80;;;26.20;63.60;;;;;;4928403;29;20513;-76
2021/07/13 12:06:42;;;;;;;7.72;6.60;;;26.40;63.40;;;;;;4931970;29;20024;-73
2021/07/13 12:09:11;;;;;;;7.35;6.50;;;26.60;63.00;;;;;;4931493;29;20039;-74
2021/07/13 12:11:40;;;;;;;7.57;6.93;;;26.80;62.80;;;;;;4931119;29;20086;-74
2021/07/13 12:14:10;;;;;;;7.53;6.72;;;27.00;62.50;;;;;;4930835;29;20082;-74
2021/07/13 12:16:37;;;;;;;6.32;5.78;;;27.10;61.90;;;;;;4932352;29;20027;-76
2021/07/13 12:19:10;;;;;;;7.07;6.47;;;27.20;61.70;;;;;;4931832;29;20034;-74
2021/07/13 12:21:46;;;;;;;7.05;6.18;;;27.40;61.50;;;;;;4930562;29;20032;-78
2021/07/13 12:24:19;;;;;;;8.35;7.22;;;27.50;61.50;;;;;;4931463;29;20431;-73
2021/07/13 12:27:09;;;;;;;8.05;7.25;;;27.50;61.30;;;;;;4931897;29;20031;-75
2021/07/13 12:29:53;;;;;;;6.90;6.20;;;27.40;61.20;;;;;;4931937;29;20423;-76
2021/07/13 12:32:29;;;;;;;6.22;5.63;;;27.30;61.20;;;;;;4931816;29;20110;-74
2021/07/13 12:34:56;;;;;;;6.63;6.03;;;27.10;61.30;;;;;;4930858;29;20110;-76
2021/07/13 12:37:26;;;;;;;5.78;5.18;;;26.90;61.70;;;;;;4931454;29;20035;-74
2021/07/13 12:40:01;;;;;;;9.75;5.88;;;26.70;61.90;;;;;;4931462;29;20028;-75
2021/07/13 12:42:46;;;;;;;6.68;6.18;;;26.50;62.30;;;;;;4926935;29;20032;-75
2021/07/13 12:45:25;;;;;;;6.63;6.03;;;26.30;62.70;;;;;;4911984;29;20578;-74
2021/07/13 12:48:01;;;;;;;7.05;6.32;;;26.10;63.00;;;;;;4914286;29;20028;-76
2021/07/13 12:50:29;;;;;;;7.13;6.45;;;25.90;63.30;;;;;;4930691;29;20078;-73
2021/07/13 12:53:04;;;;;;;8.77;6.85;;;25.80;63.60;;;;;;4930018;29;20105;-74
2021/07/13 12:55:42;;;;;;;7.50;6.63;;;25.70;63.90;;;;;;4931125;29;20134;-75
2021/07/13 12:58:23;;;;;;;7.07;6.47;;;25.50;64.00;;;;;;4931714;29;20140;-76
2021/07/13 13:00:51;;;;;;;9.27;6.22;;;25.40;64.30;;;;;;4931579;29;20114;-76